Time;durP1;ratioP1;P1;durP2;ratioP2;P2;SDS_P1;SDS_P2;PMS_P1;PMS_P2;Temp;Humidity;BMP_temperature;BMP_pressure;BME280_temperature;BME280_humidity;BME280_pressure;Samples;Min_cycle;Max_cycle;Signal;HPM_P1;HPM_P2
2023/09/09 00:01:56;;;;;;;9.45;7.72;;;;;;;;;;5041276;28;20061;-59
2023/09/09 00:04:22;;;;;;;10.60;7.90;;;;;;;;;;5052763;28;20030;-60
2023/09/09 00:06:47;;;;;;;11.32;7.85;;;;;;;;;;5051815;28;20389;-58
2023/09/09 00:09:15;;;;;;;10.00;7.30;;;;;;;;;;5050366;28;20071;-58
2023/09/09 00:11:40;;;;;;;11.85;7.88;;;;;;;;;;5045802;28;20060;-58
2023/09/09 00:14:05;;;;;;;10.35;7.35;;;;;;;;;;5046712;28;20071;-60
2023/09/09 00:16:34;;;;;;;10.57;7.35;;;;;;;;;;5038102;28;20144;-59
2023/09/09 00:19:00;;;;;;;8.65;7.05;;;;;;;;;;5052880;28;20035;-64
2023/09/09 00:21:25;;;;;;;10.85;7.68;;;;;;;;;;5034759;28;20120;-59
2023/09/09 00:23:53;;;;;;;13.15;7.65;;;;;;;;;;5033012;28;20447;-58
2023/09/09 00:26:18;;;;;;;10.00;7.20;;;;;;;;;;5032817;28;20029;-60
2023/09/09 00:28:44;;;;;;;10.13;6.95;;;;;;;;;;5042165;28;20102;-58
2023/09/09 00:31:09;;;;;;;8.95;7.28;;;;;;;;;;5044559;28;20033;-58
2023/09/09 00:33:34;;;;;;;13.10;7.25;;;;;;;;;;5048730;28;20080;-59
2023/09/09 00:36:03;;;;;;;8.85;7.25;;;;;;;;;;5042378;28;20124;-60
2023/09/09 00:38:28;;;;;;;10.95;7.57;;;;;;;;;;5030735;28;20037;-59
2023/09/09 00:41:17;;;;;;;8.63;7.00;;;;;;;;;;5046671;28;20032;-59
2023/09/09 00:43:46;;;;;;;11.05;7.20;;;;;;;;;;5047935;28;20029;-58
2023/09/09 00:46:13;;;;;;;9.02;7.15;;;;;;;;;;5051258;28;20112;-59
2023/09/09 00:48:39;;;;;;;8.88;6.90;;;;;;;;;;5050735;28;20044;-58
2023/09/09 00:51:05;;;;;;;9.20;6.75;;;;;;;;;;5050475;28;20033;-58
2023/09/09 00:53:34;;;;;;;8.93;6.68;;;;;;;;;;5049365;28;20040;-58
2023/09/09 00:56:01;;;;;;;9.52;6.78;;;;;;;;;;5051142;28;20059;-58
2023/09/09 00:58:29;;;;;;;10.38;7.00;;;;;;;;;;5039423;28;20037;-59
2023/09/09 01:00:54;;;;;;;10.40;7.18;;;;;;;;;;5041721;28;20038;-58
2023/09/09 01:03:20;;;;;;;9.80;7.07;;;;;;;;;;5044721;28;20037;-59
2023/09/09 01:05:45;;;;;;;11.25;7.28;;;;;;;;;;5046715;28;20096;-58
2023/09/09 01:08:12;;;;;;;9.35;6.53;;;;;;;;;;5032474;28;20061;-59
2023/09/09 01:10:37;;;;;;;8.85;6.57;;;;;;;;;;5047287;28;20056;-57
2023/09/09 01:13:03;;;;;;;9.63;6.90;;;;;;;;;;5050431;28;20179;-57
2023/09/09 01:15:28;;;;;;;8.95;6.68;;;;;;;;;;5045150;28;20057;-58
2023/09/09 01:17:54;;;;;;;10.13;6.88;;;;;;;;;;5050766;28;20461;-59
2023/09/09 01:20:24;;;;;;;8.02;6.10;;;;;;;;;;5050465;28;20029;-57
2023/09/09 01:22:50;;;;;;;11.25;7.15;;;;;;;;;;5040721;28;20041;-58
2023/09/09 01:25:16;;;;;;;8.35;6.43;;;;;;;;;;5035553;28;20370;-58
2023/09/09 01:27:42;;;;;;;9.05;6.82;;;;;;;;;;5040736;28;20034;-59
2023/09/09 01:30:08;;;;;;;8.98;6.65;;;;;;;;;;5044727;28;20044;-59
2023/09/09 01:32:35;;;;;;;11.45;6.57;;;;;;;;;;5037062;28;20039;-57
2023/09/09 01:35:04;;;;;;;9.05;6.47;;;;;;;;;;5050022;28;20546;-58
2023/09/09 01:37:30;;;;;;;9.88;6.47;;;;;;;;;;5040004;28;20040;-59
2023/09/09 01:39:56;;;;;;;10.38;6.88;;;;;;;;;;5033093;28;20088;-58
2023/09/09 01:42:21;;;;;;;8.82;6.68;;;;;;;;;;5031838;28;20029;-58
2023/09/09 01:44:47;;;;;;;10.85;6.53;;;;;;;;;;5034584;28;20077;-58
2023/09/09 01:47:15;;;;;;;11.77;6.40;;;;;;;;;;5050548;28;20478;-59
2023/09/09 01:49:42;;;;;;;10.20;6.50;;;;;;;;;;5048415;28;20453;-59
2023/09/09 01:52:08;;;;;;;9.20;6.60;;;;;;;;;;5050416;28;20028;-59
2023/09/09 01:54:33;;;;;;;9.82;6.50;;;;;;;;;;5049206;28;20036;-58
2023/09/09 01:56:59;;;;;;;8.90;6.70;;;;;;;;;;5045584;28;20025;-59
2023/09/09 01:59:24;;;;;;;8.77;6.57;;;;;;;;;;5034060;28;20038;-59
2023/09/09 02:01:50;;;;;;;8.70;6.95;;;;;;;;;;5045995;28;20100;-59
2023/09/09 02:04:15;;;;;;;9.10;6.85;;;;;;;;;;5041393;28;20079;-57
2023/09/09 02:06:41;;;;;;;8.43;6.60;;;;;;;;;;5039232;28;20433;-58
2023/09/09 02:09:07;;;;;;;8.20;6.72;;;;;;;;;;5037917;28;20390;-56
2023/09/09 02:11:32;;;;;;;8.68;6.97;;;;;;;;;;5048261;28;20421;-58
2023/09/09 02:13:57;;;;;;;9.65;6.70;;;;;;;;;;5048164;28;20036;-58
2023/09/09 02:16:23;;;;;;;8.77;6.85;;;;;;;;;;5049942;28;20049;-58
2023/09/09 02:18:48;;;;;;;8.30;6.35;;;;;;;;;;5049548;28;20194;-57
2023/09/09 02:21:14;;;;;;;10.68;6.82;;;;;;;;;;5034043;28;20030;-63
2023/09/09 02:23:41;;;;;;;8.75;6.75;;;;;;;;;;5030396;28;20079;-58
2023/09/09 02:26:06;;;;;;;11.15;7.53;;;;;;;;;;5049299;28;20047;-58
2023/09/09 02:28:32;;;;;;;9.57;6.88;;;;;;;;;;5038097;28;20029;-58
2023/09/09 02:30:59;;;;;;;8.43;6.78;;;;;;;;;;5040065;28;20033;-57
2023/09/09 02:33:25;;;;;;;7.88;6.15;;;;;;;;;;5037333;28;20096;-59
2023/09/09 02:35:50;;;;;;;9.35;6.65;;;;;;;;;;5045189;28;20614;-58
2023/09/09 02:38:16;;;;;;;8.82;6.53;;;;;;;;;;5053821;28;20120;-57
2023/09/09 02:40:41;;;;;;;10.15;7.10;;;;;;;;;;5045953;28;20120;-58
2023/09/09 02:43:06;;;;;;;12.82;7.10;;;;;;;;;;5054655;28;20351;-59
2023/09/09 02:45:32;;;;;;;9.90;6.82;;;;;;;;;;5050677;28;20028;-58
2023/09/09 02:47:59;;;;;;;8.80;6.75;;;;;;;;;;5053591;28;20431;-58
2023/09/09 02:50:25;;;;;;;10.05;7.05;;;;;;;;;;5053199;28;20037;-58
2023/09/09 02:52:50;;;;;;;8.63;6.78;;;;;;;;;;5052644;28;20333;-56
2023/09/09 02:55:17;;;;;;;9.65;6.97;;;;;;;;;;5053601;28;20163;-60
2023/09/09 02:57:46;;;;;;;9.77;6.93;;;;;;;;;;5043972;28;20539;-58
2023/09/09 03:00:13;;;;;;;8.47;6.73;;;;;;;;;;5042946;28;20032;-58
2023/09/09 03:02:38;;;;;;;9.65;7.25;;;;;;;;;;5053527;28;20086;-58
2023/09/09 03:05:04;;;;;;;11.02;7.60;;;;;;;;;;5050170;28;20148;-56
2023/09/09 03:07:29;;;;;;;11.02;7.28;;;;;;;;;;5047420;28;20496;-57
2023/09/09 03:09:55;;;;;;;11.00;7.53;;;;;;;;;;5037722;28;20462;-57
2023/09/09 03:12:20;;;;;;;10.02;6.65;;;;;;;;;;5032917;28;20080;-58
2023/09/09 03:14:49;;;;;;;11.05;7.22;;;;;;;;;;5032769;28;20474;-58
2023/09/09 03:17:15;;;;;;;9.55;6.95;;;;;;;;;;5034118;28;20131;-57
2023/09/09 03:19:40;;;;;;;9.35;6.72;;;;;;;;;;5033324;28;20079;-57
2023/09/09 03:22:06;;;;;;;11.32;7.38;;;;;;;;;;5032830;28;20041;-57
2023/09/09 03:24:31;;;;;;;10.05;7.80;;;;;;;;;;5046037;28;20102;-58
2023/09/09 03:26:57;;;;;;;8.90;7.40;;;;;;;;;;5050929;28;20112;-58
2023/09/09 03:29:22;;;;;;;9.90;7.22;;;;;;;;;;5049245;28;20359;-58
2023/09/09 03:31:47;;;;;;;9.25;7.25;;;;;;;;;;5047858;28;20535;-58
2023/09/09 03:34:13;;;;;;;10.13;7.03;;;;;;;;;;5049946;28;20036;-58
2023/09/09 03:36:38;;;;;;;10.57;7.53;;;;;;;;;;5041019;28;20066;-57
2023/09/09 03:39:04;;;;;;;11.77;7.47;;;;;;;;;;5034644;28;20037;-58
2023/09/09 03:41:30;;;;;;;10.57;7.15;;;;;;;;;;5051357;28;20466;-58
2023/09/09 03:43:56;;;;;;;11.65;7.57;;;;;;;;;;5049446;28;20679;-58
2023/09/09 03:46:21;;;;;;;9.43;6.95;;;;;;;;;;5035057;28;20029;-57
2023/09/09 03:48:46;;;;;;;11.32;7.90;;;;;;;;;;5038907;28;20039;-58
2023/09/09 03:51:12;;;;;;;11.00;7.45;;;;;;;;;;5051088;28;20025;-58
2023/09/09 03:53:37;;;;;;;9.45;7.22;;;;;;;;;;5051458;28;20492;-58
2023/09/09 03:56:03;;;;;;;10.35;7.55;;;;;;;;;;5052416;28;20119;-57
2023/09/09 03:58:29;;;;;;;9.50;7.95;;;;;;;;;;5049348;28;20044;-57
2023/09/09 04:01:20;;;;;;;10.70;7.90;;;;;;;;;;5049225;28;20033;-57
2023/09/09 04:03:46;;;;;;;9.90;7.57;;;;;;;;;;5038027;28;20048;-57
2023/09/09 04:06:12;;;;;;;10.93;7.72;;;;;;;;;;5039077;28;20041;-57
2023/09/09 04:08:39;;;;;;;9.52;7.50;;;;;;;;;;5035408;28;20107;-57
2023/09/09 04:11:05;;;;;;;10.55;7.70;;;;;;;;;;5047007;28;20037;-57
2023/09/09 04:13:31;;;;;;;13.65;7.80;;;;;;;;;;5052099;28;20414;-59
2023/09/09 04:15:57;;;;;;;11.40;7.97;;;;;;;;;;5045653;28;20082;-58
2023/09/09 04:18:23;;;;;;;12.02;8.40;;;;;;;;;;5052814;28;20484;-56
2023/09/09 04:20:49;;;;;;;13.48;8.27;;;;;;;;;;5049093;28;20029;-56
2023/09/09 04:23:16;;;;;;;11.38;8.40;;;;;;;;;;5051486;28;20525;-57
2023/09/09 04:25:42;;;;;;;11.73;8.35;;;;;;;;;;5041312;28;20395;-57
2023/09/09 04:28:11;;;;;;;12.10;8.10;;;;;;;;;;5047963;28;20068;-57
2023/09/09 04:30:40;;;;;;;11.68;8.70;;;;;;;;;;5050498;28;20037;-56
2023/09/09 04:33:07;;;;;;;11.60;8.43;;;;;;;;;;5044618;28;20398;-57
2023/09/09 04:35:33;;;;;;;10.15;8.07;;;;;;;;;;5037153;28;20094;-55
2023/09/09 04:37:58;;;;;;;12.63;9.40;;;;;;;;;;5047873;28;20682;-58
2023/09/09 04:40:24;;;;;;;11.63;8.82;;;;;;;;;;5041929;28;20037;-59
2023/09/09 04:42:49;;;;;;;11.43;8.63;;;;;;;;;;5044614;28;20037;-57
2023/09/09 04:45:15;;;;;;;11.60;8.90;;;;;;;;;;5049197;28;20036;-57
2023/09/09 04:47:43;;;;;;;10.93;8.32;;;;;;;;;;5050282;28;20031;-55
2023/09/09 04:50:08;;;;;;;14.15;8.82;;;;;;;;;;5049013;28;20025;-58
2023/09/09 04:52:34;;;;;;;14.63;9.27;;;;;;;;;;5038668;28;20087;-57
2023/09/09 04:54:59;;;;;;;19.08;9.90;;;;;;;;;;5050352;28;20508;-57
2023/09/09 04:57:25;;;;;;;15.55;9.68;;;;;;;;;;5042210;28;20136;-58
2023/09/09 04:59:50;;;;;;;22.58;8.82;;;;;;;;;;5050565;28;20115;-56
2023/09/09 05:02:16;;;;;;;17.58;9.10;;;;;;;;;;5052420;28;20107;-56
2023/09/09 05:04:41;;;;;;;23.70;9.23;;;;;;;;;;5051517;28;20056;-58
2023/09/09 05:07:07;;;;;;;19.17;8.98;;;;;;;;;;5050957;28;20040;-56
2023/09/09 05:09:32;;;;;;;15.13;8.43;;;;;;;;;;5052246;28;20090;-57
2023/09/09 05:11:57;;;;;;;21.95;8.80;;;;;;;;;;5045300;28;20632;-59
2023/09/09 05:14:23;;;;;;;19.77;8.80;;;;;;;;;;5038847;28;20033;-58
2023/09/09 05:16:48;;;;;;;29.42;10.07;;;;;;;;;;5035878;28;20049;-57
2023/09/09 05:19:14;;;;;;;30.42;9.80;;;;;;;;;;5052206;28;20110;-56
2023/09/09 05:21:39;;;;;;;28.90;8.88;;;;;;;;;;5051832;28;20025;-58
2023/09/09 05:24:05;;;;;;;41.70;9.82;;;;;;;;;;5050546;28;20458;-56
2023/09/09 05:26:31;;;;;;;36.78;10.13;;;;;;;;;;5034025;28;20035;-57
2023/09/09 05:28:56;;;;;;;34.08;10.30;;;;;;;;;;5031464;28;20037;-57
2023/09/09 05:31:21;;;;;;;51.85;9.98;;;;;;;;;;5031301;28;20033;-58
2023/09/09 05:33:47;;;;;;;75.75;11.05;;;;;;;;;;5030408;28;20463;-56
2023/09/09 05:36:12;;;;;;;64.88;10.38;;;;;;;;;;5031574;28;20075;-57
2023/09/09 05:38:38;;;;;;;64.72;10.63;;;;;;;;;;5031710;28;20364;-56
2023/09/09 05:41:03;;;;;;;76.05;11.40;;;;;;;;;;5036556;28;20083;-57
2023/09/09 05:43:28;;;;;;;56.20;10.27;;;;;;;;;;5050938;28;20025;-57
2023/09/09 05:45:59;;;;;;;64.47;11.48;;;;;;;;;;5050645;28;20082;-58
2023/09/09 05:48:25;;;;;;;67.43;11.13;;;;;;;;;;5051646;28;20063;-58
2023/09/09 05:50:51;;;;;;;89.60;11.30;;;;;;;;;;5050323;28;20068;-56
2023/09/09 05:53:16;;;;;;;62.55;10.95;;;;;;;;;;5050359;28;20060;-56
2023/09/09 05:55:42;;;;;;;64.15;11.02;;;;;;;;;;5051065;28;20021;-57
2023/09/09 05:58:07;;;;;;;52.92;10.15;;;;;;;;;;5031561;28;20484;-58
2023/09/09 06:00:33;;;;;;;51.10;9.88;;;;;;;;;;5030377;28;20033;-57
2023/09/09 06:02:58;;;;;;;43.53;9.85;;;;;;;;;;5032716;28;20026;-57
2023/09/09 06:05:24;;;;;;;37.33;9.80;;;;;;;;;;5038964;28;20083;-58
2023/09/09 06:07:49;;;;;;;64.05;11.27;;;;;;;;;;5069366;28;20393;-59
2023/09/09 06:10:15;;;;;;;39.88;10.35;;;;;;;;;;5055261;28;20159;-58
2023/09/09 06:12:40;;;;;;;56.00;10.25;;;;;;;;;;5054949;28;20025;-57
2023/09/09 06:15:06;;;;;;;42.42;10.18;;;;;;;;;;5053205;28;20037;-56
2023/09/09 06:17:32;;;;;;;33.83;9.75;;;;;;;;;;5053494;28;20040;-58
2023/09/09 06:19:57;;;;;;;37.55;9.60;;;;;;;;;;5054201;28;20531;-56
2023/09/09 06:22:24;;;;;;;27.80;10.05;;;;;;;;;;5055074;28;20049;-56
2023/09/09 06:24:49;;;;;;;21.70;10.43;;;;;;;;;;5054222;28;20071;-58
2023/09/09 06:27:14;;;;;;;23.35;10.32;;;;;;;;;;5052758;28;20461;-57
2023/09/09 06:29:40;;;;;;;17.00;9.85;;;;;;;;;;5055241;28;20031;-56
2023/09/09 06:32:09;;;;;;;15.75;10.15;;;;;;;;;;5053017;28;20505;-57
2023/09/09 06:34:34;;;;;;;20.70;10.73;;;;;;;;;;5055025;28;20456;-56
2023/09/09 06:37:00;;;;;;;15.57;10.07;;;;;;;;;;5053337;28;20063;-58
2023/09/09 06:39:25;;;;;;;12.98;10.20;;;;;;;;;;5055117;28;20033;-57
2023/09/09 06:41:51;;;;;;;18.23;10.50;;;;;;;;;;5049152;28;20363;-58
2023/09/09 06:44:16;;;;;;;17.60;9.77;;;;;;;;;;5054946;28;20405;-58
2023/09/09 06:46:41;;;;;;;15.10;10.43;;;;;;;;;;5053643;28;20037;-58
2023/09/09 06:49:07;;;;;;;13.38;10.02;;;;;;;;;;5054375;28;20027;-57
2023/09/09 06:51:33;;;;;;;17.30;9.85;;;;;;;;;;5053780;28;20423;-58
2023/09/09 06:53:58;;;;;;;14.13;9.98;;;;;;;;;;5052437;28;20036;-59
2023/09/09 06:56:23;;;;;;;10.82;8.70;;;;;;;;;;5053549;28;20036;-58
2023/09/09 06:58:49;;;;;;;13.82;9.60;;;;;;;;;;5053365;28;20025;-58
2023/09/09 07:01:14;;;;;;;11.88;9.13;;;;;;;;;;5054625;28;20037;-58
2023/09/09 07:03:40;;;;;;;13.05;9.35;;;;;;;;;;5054669;28;20025;-58
2023/09/09 07:06:05;;;;;;;15.82;9.75;;;;;;;;;;5045523;28;20105;-57
2023/09/09 07:08:31;;;;;;;12.45;8.88;;;;;;;;;;5052683;28;20483;-57
2023/09/09 07:10:56;;;;;;;13.70;9.18;;;;;;;;;;5049555;28;20041;-55
2023/09/09 07:13:22;;;;;;;11.20;8.32;;;;;;;;;;5050140;28;20029;-57
2023/09/09 07:15:54;;;;;;;11.73;8.50;;;;;;;;;;5053976;28;20061;-56
2023/09/09 07:18:20;;;;;;;9.98;7.80;;;;;;;;;;5053330;28;20087;-57
2023/09/09 07:20:46;;;;;;;14.82;8.57;;;;;;;;;;5053000;28;20130;-57
2023/09/09 07:23:14;;;;;;;12.25;8.82;;;;;;;;;;5045709;28;20135;-56
2023/09/09 07:25:39;;;;;;;12.65;8.70;;;;;;;;;;5042583;28;20553;-58
2023/09/09 07:28:05;;;;;;;11.35;8.15;;;;;;;;;;5052735;28;20029;-58
2023/09/09 07:30:32;;;;;;;14.27;8.23;;;;;;;;;;5051208;28;20039;-57
2023/09/09 07:32:58;;;;;;;12.18;8.52;;;;;;;;;;5053187;28;20044;-57
2023/09/09 07:35:23;;;;;;;12.30;8.32;;;;;;;;;;5053516;28;20033;-59
2023/09/09 07:37:50;;;;;;;11.40;8.50;;;;;;;;;;5033337;28;20037;-59
2023/09/09 07:40:16;;;;;;;13.68;8.82;;;;;;;;;;5048210;28;20083;-58
2023/09/09 07:42:41;;;;;;;14.38;8.55;;;;;;;;;;5052322;28;20038;-56
2023/09/09 07:45:07;;;;;;;13.13;8.60;;;;;;;;;;5052373;28;20029;-58
2023/09/09 07:47:32;;;;;;;12.18;8.20;;;;;;;;;;5053608;28;20040;-58
2023/09/09 07:49:58;;;;;;;11.27;7.95;;;;;;;;;;5052958;28;20462;-60
2023/09/09 07:52:23;;;;;;;10.05;7.95;;;;;;;;;;5054042;28;20025;-58
2023/09/09 07:54:51;;;;;;;10.07;7.63;;;;;;;;;;5053228;28;20024;-59
2023/09/09 07:57:16;;;;;;;11.93;7.60;;;;;;;;;;5051048;28;20039;-58
2023/09/09 07:59:42;;;;;;;10.95;7.70;;;;;;;;;;5053079;28;20390;-55
2023/09/09 08:02:07;;;;;;;10.40;7.60;;;;;;;;;;5052641;28;20025;-57
2023/09/09 08:04:33;;;;;;;13.55;7.45;;;;;;;;;;5053202;28;20091;-57
2023/09/09 08:06:58;;;;;;;11.82;7.63;;;;;;;;;;5051023;28;20059;-56
2023/09/09 08:09:26;;;;;;;10.65;7.35;;;;;;;;;;5047876;28;20032;-58
2023/09/09 08:11:52;;;;;;;10.85;7.45;;;;;;;;;;5040784;28;20112;-57
2023/09/09 08:14:18;;;;;;;10.48;7.75;;;;;;;;;;5045568;28;20465;-56
2023/09/09 08:16:44;;;;;;;12.40;7.53;;;;;;;;;;5048873;28;20128;-56
2023/09/09 08:19:09;;;;;;;10.13;7.40;;;;;;;;;;5052033;28;20049;-53
2023/09/09 08:21:35;;;;;;;13.13;7.97;;;;;;;;;;5053076;28;20025;-55
2023/09/09 08:24:01;;;;;;;11.07;7.10;;;;;;;;;;5051931;28;20040;-55
2023/09/09 08:26:27;;;;;;;11.85;7.80;;;;;;;;;;5047652;28;20044;-53
2023/09/09 08:28:54;;;;;;;11.13;7.53;;;;;;;;;;5050291;28;20037;-57
2023/09/09 08:31:20;;;;;;;13.93;8.18;;;;;;;;;;5050770;28;20067;-53
2023/09/09 08:33:45;;;;;;;9.88;7.32;;;;;;;;;;5051622;28;20068;-56
2023/09/09 08:36:11;;;;;;;11.07;8.07;;;;;;;;;;5050631;28;20021;-54
2023/09/09 08:38:36;;;;;;;14.60;7.45;;;;;;;;;;5051024;28;20047;-56
2023/09/09 08:41:10;;;;;;;9.90;7.50;;;;;;;;;;5050343;28;20033;-55
2023/09/09 08:43:35;;;;;;;12.15;7.70;;;;;;;;;;5044994;28;20025;-56
2023/09/09 08:46:13;;;;;;;9.50;7.65;;;;;;;;;;5044989;28;20473;-57
2023/09/09 08:48:41;;;;;;;16.83;7.72;;;;;;;;;;5049137;28;20037;-57
2023/09/09 08:51:12;;;;;;;10.98;7.47;;;;;;;;;;5051461;28;20032;-58
2023/09/09 08:53:40;;;;;;;11.15;8.02;;;;;;;;;;5051845;28;20481;-55
2023/09/09 08:56:05;;;;;;;12.32;7.60;;;;;;;;;;5045445;28;20473;-57
2023/09/09 08:58:31;;;;;;;10.20;7.40;;;;;;;;;;5033956;28;20113;-57
2023/09/09 09:00:58;;;;;;;10.60;7.28;;;;;;;;;;5031397;28;20042;-56
2023/09/09 09:03:24;;;;;;;11.95;7.45;;;;;;;;;;5037861;28;20074;-58
2023/09/09 09:05:53;;;;;;;11.63;7.70;;;;;;;;;;5047108;28;20033;-56
2023/09/09 09:08:18;;;;;;;11.73;7.57;;;;;;;;;;5032330;28;20036;-57
2023/09/09 09:10:47;;;;;;;17.92;7.60;;;;;;;;;;5035447;28;20033;-55
2023/09/09 09:13:13;;;;;;;10.55;7.25;;;;;;;;;;5031286;28;20029;-58
2023/09/09 09:15:39;;;;;;;10.48;7.88;;;;;;;;;;5045822;28;20487;-57
2023/09/09 09:18:05;;;;;;;10.38;8.05;;;;;;;;;;5049607;28;20041;-59
2023/09/09 09:20:33;;;;;;;9.23;7.10;;;;;;;;;;5052095;28;20116;-59
2023/09/09 09:23:00;;;;;;;14.68;7.50;;;;;;;;;;5048572;28;20036;-59
2023/09/09 09:25:27;;;;;;;12.30;7.63;;;;;;;;;;5051873;28;20033;-59
2023/09/09 09:27:58;;;;;;;10.10;7.40;;;;;;;;;;5046107;28;20497;-59
2023/09/09 09:30:25;;;;;;;11.93;7.35;;;;;;;;;;5032008;28;20037;-59
2023/09/09 09:32:54;;;;;;;10.55;7.00;;;;;;;;;;5032091;28;20087;-58
2023/09/09 09:35:27;;;;;;;11.57;6.85;;;;;;;;;;5031628;28;20026;-58
2023/09/09 09:38:01;;;;;;;9.95;6.90;;;;;;;;;;5033259;28;20029;-59
2023/09/09 09:40:28;;;;;;;12.73;6.95;;;;;;;;;;5048597;28;20057;-60
2023/09/09 09:42:54;;;;;;;12.40;6.40;;;;;;;;;;5051285;28;20056;-60
2023/09/09 09:45:24;;;;;;;11.95;6.05;;;;;;;;;;5051177;28;20071;-60
2023/09/09 09:47:50;;;;;;;10.27;5.95;;;;;;;;;;5051731;28;20075;-60
2023/09/09 09:50:18;;;;;;;12.48;5.70;;;;;;;;;;5050543;28;20440;-60
2023/09/09 09:52:48;;;;;;;11.52;6.40;;;;;;;;;;5051018;28;20063;-59
2023/09/09 09:55:17;;;;;;;9.50;5.75;;;;;;;;;;5046658;28;20075;-59
2023/09/09 09:57:46;;;;;;;15.63;7.20;;;;;;;;;;5039735;28;20037;-59
2023/09/09 10:00:15;;;;;;;10.80;6.00;;;;;;;;;;5036769;28;20492;-59
2023/09/09 10:02:42;;;;;;;13.80;6.47;;;;;;;;;;5042276;28;20442;-59
2023/09/09 10:05:14;;;;;;;9.52;6.45;;;;;;;;;;5044479;28;20116;-59
2023/09/09 10:07:43;;;;;;;10.25;6.28;;;;;;;;;;5036276;28;20497;-61
2023/09/09 10:10:15;;;;;;;8.60;6.40;;;;;;;;;;5032107;28;20029;-61
2023/09/09 10:13:13;;;;;;;13.07;6.45;;;;;;;;;;5051550;28;20044;-59
2023/09/09 10:15:40;;;;;;;11.95;6.63;;;;;;;;;;5049626;28;20045;-58
2023/09/09 10:18:06;;;;;;;15.45;6.80;;;;;;;;;;5050680;28;20029;-59
2023/09/09 10:20:33;;;;;;;12.93;6.40;;;;;;;;;;5045897;28;20033;-58
2023/09/09 10:23:00;;;;;;;12.02;6.70;;;;;;;;;;5030646;28;20160;-58
2023/09/09 10:25:30;;;;;;;13.68;6.78;;;;;;;;;;5031139;28;20029;-58
2023/09/09 10:27:56;;;;;;;11.73;7.00;;;;;;;;;;5063560;28;20116;-59
2023/09/09 10:30:23;;;;;;;16.10;7.30;;;;;;;;;;5038709;28;20363;-59
2023/09/09 10:32:49;;;;;;;16.33;6.78;;;;;;;;;;5051441;28;20469;-59
2023/09/09 10:35:15;;;;;;;11.70;7.25;;;;;;;;;;5048204;28;20107;-59
2023/09/09 10:37:42;;;;;;;14.90;6.82;;;;;;;;;;5051392;28;20094;-60
2023/09/09 10:40:09;;;;;;;15.23;6.90;;;;;;;;;;5049987;28;20029;-59
2023/09/09 10:42:37;;;;;;;14.25;7.30;;;;;;;;;;5049678;28;20354;-61
2023/09/09 10:45:24;;;;;;;13.60;6.93;;;;;;;;;;5048513;28;20033;-57
2023/09/09 10:47:55;;;;;;;12.73;6.45;;;;;;;;;;5047409;28;20481;-59
2023/09/09 10:50:21;;;;;;;15.27;6.88;;;;;;;;;;5053365;28;20025;-59
2023/09/09 10:52:46;;;;;;;13.65;7.18;;;;;;;;;;5048790;28;20033;-60
2023/09/09 10:55:15;;;;;;;15.32;6.93;;;;;;;;;;5053239;28;20462;-59
2023/09/09 10:57:40;;;;;;;12.20;7.22;;;;;;;;;;5054884;28;20033;-59
2023/09/09 11:00:09;;;;;;;10.95;6.85;;;;;;;;;;5053844;28;20501;-59
2023/09/09 11:02:48;;;;;;;14.63;7.37;;;;;;;;;;5054542;28;20079;-59
2023/09/09 11:05:15;;;;;;;13.15;7.43;;;;;;;;;;5050935;28;20025;-59
2023/09/09 11:07:44;;;;;;;15.18;7.65;;;;;;;;;;5032431;28;20505;-55
2023/09/09 11:10:15;;;;;;;14.30;6.70;;;;;;;;;;5031727;28;20363;-53
2023/09/09 11:12:48;;;;;;;11.93;6.78;;;;;;;;;;5034589;28;20112;-51
2023/09/09 11:15:15;;;;;;;21.40;6.35;;;;;;;;;;5045087;28;20036;-55
2023/09/09 11:17:44;;;;;;;19.23;6.65;;;;;;;;;;5053792;28;20033;-55
2023/09/09 11:20:12;;;;;;;17.80;6.70;;;;;;;;;;5052217;28;20037;-54
2023/09/09 11:22:40;;;;;;;14.25;6.97;;;;;;;;;;5054353;28;20044;-50
2023/09/09 11:25:06;;;;;;;15.23;7.10;;;;;;;;;;5051708;28;20367;-54
2023/09/09 11:27:33;;;;;;;11.20;6.90;;;;;;;;;;5054076;28;20457;-53
2023/09/09 11:29:58;;;;;;;12.32;6.65;;;;;;;;;;5052261;28;20037;-54
2023/09/09 11:32:28;;;;;;;14.73;6.50;;;;;;;;;;5051820;28;20044;-56
2023/09/09 11:34:54;;;;;;;12.95;6.28;;;;;;;;;;5050608;28;20033;-54
2023/09/09 11:37:20;;;;;;;11.18;5.38;;;;;;;;;;5052846;28;20038;-55
2023/09/09 11:39:46;;;;;;;14.57;5.72;;;;;;;;;;5053980;28;20086;-53
2023/09/09 11:42:11;;;;;;;13.90;5.43;;;;;;;;;;5052535;28;20446;-56
2023/09/09 11:44:40;;;;;;;15.60;6.00;;;;;;;;;;5037565;28;20533;-51
2023/09/09 11:47:07;;;;;;;17.63;5.60;;;;;;;;;;5051553;28;20033;-56
2023/09/09 11:49:32;;;;;;;15.50;5.55;;;;;;;;;;5043072;28;20038;-53
2023/09/09 11:52:01;;;;;;;12.27;5.95;;;;;;;;;;5050260;28;20039;-53
2023/09/09 11:54:27;;;;;;;12.23;5.70;;;;;;;;;;5048276;28;20030;-54
2023/09/09 11:57:06;;;;;;;14.20;5.60;;;;;;;;;;5042120;28;20039;-52
2023/09/09 11:59:41;;;;;;;12.00;5.80;;;;;;;;;;5053624;28;20025;-56
2023/09/09 12:02:07;;;;;;;13.63;6.05;;;;;;;;;;5052561;28;20041;-55
2023/09/09 12:04:32;;;;;;;11.80;5.72;;;;;;;;;;5052234;28;20035;-57
2023/09/09 12:06:58;;;;;;;16.30;6.15;;;;;;;;;;5052762;28;20032;-53
2023/09/09 12:09:23;;;;;;;11.90;5.78;;;;;;;;;;5048467;28;20029;-57
2023/09/09 12:11:49;;;;;;;14.93;6.15;;;;;;;;;;5053149;28;20058;-53
2023/09/09 12:14:15;;;;;;;18.65;6.25;;;;;;;;;;5051379;28;20036;-53
2023/09/09 12:16:45;;;;;;;11.35;5.65;;;;;;;;;;5053268;28;20052;-57
2023/09/09 12:19:13;;;;;;;12.73;6.10;;;;;;;;;;5047306;28;20044;-54
2023/09/09 12:21:44;;;;;;;15.60;5.68;;;;;;;;;;5052420;28;20475;-57
2023/09/09 12:24:09;;;;;;;12.38;5.93;;;;;;;;;;5047071;28;20033;-53
2023/09/09 12:26:35;;;;;;;14.95;5.10;;;;;;;;;;5031850;28;20033;-54
2023/09/09 12:29:11;;;;;;;16.42;5.63;;;;;;;;;;5039034;28;20346;-54
2023/09/09 12:31:56;;;;;;;13.90;6.18;;;;;;;;;;5052927;28;20040;-54
2023/09/09 12:34:24;;;;;;;10.77;5.72;;;;;;;;;;5034308;28;20029;-56
2023/09/09 12:36:50;;;;;;;15.50;5.88;;;;;;;;;;5038904;28;20037;-56
2023/09/09 12:39:24;;;;;;;12.15;5.60;;;;;;;;;;5052164;28;20028;-55
2023/09/09 12:42:04;;;;;;;17.77;6.38;;;;;;;;;;5051386;28;20465;-52
2023/09/09 12:44:31;;;;;;;12.13;6.00;;;;;;;;;;5052058;28;20063;-52
2023/09/09 12:46:57;;;;;;;15.70;5.57;;;;;;;;;;5051937;28;20040;-56
2023/09/09 12:49:22;;;;;;;10.02;5.43;;;;;;;;;;5049356;28;20106;-57
2023/09/09 12:51:48;;;;;;;11.55;5.80;;;;;;;;;;5051551;28;20033;-56
2023/09/09 12:54:14;;;;;;;15.10;5.90;;;;;;;;;;5050557;28;20131;-56
2023/09/09 12:56:39;;;;;;;19.67;5.90;;;;;;;;;;5051274;28;20533;-54
2023/09/09 12:59:06;;;;;;;11.50;5.97;;;;;;;;;;5050290;28;20025;-56
2023/09/09 13:01:31;;;;;;;12.52;6.50;;;;;;;;;;5049912;28;20044;-58
2023/09/09 13:03:57;;;;;;;16.85;7.00;;;;;;;;;;5046594;28;20036;-57
2023/09/09 13:06:22;;;;;;;16.60;7.40;;;;;;;;;;5046783;28;20051;-56
2023/09/09 13:08:47;;;;;;;18.02;6.50;;;;;;;;;;5041438;28;20033;-55
2023/09/09 13:11:13;;;;;;;14.98;6.65;;;;;;;;;;5050571;28;20492;-54
2023/09/09 13:13:39;;;;;;;15.52;6.40;;;;;;;;;;5051857;28;20028;-57
2023/09/09 13:16:06;;;;;;;18.08;6.30;;;;;;;;;;5037126;28;20508;-57
2023/09/09 13:18:32;;;;;;;11.85;6.60;;;;;;;;;;5031706;28;20079;-56
2023/09/09 13:20:57;;;;;;;14.25;7.15;;;;;;;;;;5027394;28;20037;-56
2023/09/09 13:23:26;;;;;;;19.38;7.28;;;;;;;;;;5051421;28;20025;-54
2023/09/09 13:25:51;;;;;;;17.08;7.72;;;;;;;;;;5051985;28;20112;-57
2023/09/09 13:28:17;;;;;;;16.58;7.60;;;;;;;;;;5049976;28;20109;-55
2023/09/09 13:30:42;;;;;;;21.33;7.60;;;;;;;;;;5051892;28;20021;-57
2023/09/09 13:33:08;;;;;;;13.80;6.95;;;;;;;;;;5051689;28;20033;-59
2023/09/09 13:35:33;;;;;;;15.60;7.47;;;;;;;;;;5051483;28;20029;-55
2023/09/09 13:37:59;;;;;;;14.55;7.03;;;;;;;;;;5051733;28;20056;-55
2023/09/09 13:40:24;;;;;;;12.43;6.78;;;;;;;;;;5050460;28;20025;-59
2023/09/09 13:42:50;;;;;;;9.65;6.63;;;;;;;;;;5051851;28;20124;-54
2023/09/09 13:45:15;;;;;;;11.40;7.45;;;;;;;;;;5051074;28;20037;-54
2023/09/09 13:47:41;;;;;;;13.80;7.53;;;;;;;;;;5033453;28;20061;-56
2023/09/09 13:50:07;;;;;;;11.50;7.50;;;;;;;;;;5045137;28;20411;-57
2023/09/09 13:52:33;;;;;;;14.07;7.40;;;;;;;;;;5030978;28;20120;-55
2023/09/09 13:55:00;;;;;;;15.75;7.30;;;;;;;;;;5045577;28;20108;-57
2023/09/09 13:57:25;;;;;;;15.50;7.18;;;;;;;;;;5050717;28;20029;-57
2023/09/09 13:59:51;;;;;;;13.02;6.93;;;;;;;;;;5051643;28;20454;-56
2023/09/09 14:02:16;;;;;;;11.48;7.13;;;;;;;;;;5050375;28;20029;-57
2023/09/09 14:04:42;;;;;;;13.10;7.63;;;;;;;;;;5046587;28;20029;-57
2023/09/09 14:07:07;;;;;;;16.23;9.80;;;;;;;;;;5031346;28;20037;-56
2023/09/09 14:09:33;;;;;;;16.20;10.10;;;;;;;;;;5030498;28;20080;-57
2023/09/09 14:11:58;;;;;;;22.88;9.23;;;;;;;;;;5044774;28;20079;-57
2023/09/09 14:14:24;;;;;;;14.30;8.85;;;;;;;;;;5043821;28;20108;-57
2023/09/09 14:16:50;;;;;;;14.82;9.48;;;;;;;;;;5031003;28;20057;-58
2023/09/09 14:19:16;;;;;;;16.33;9.35;;;;;;;;;;5030678;28;20025;-58
2023/09/09 14:21:41;;;;;;;13.25;9.43;;;;;;;;;;5049881;28;20040;-58
2023/09/09 14:24:07;;;;;;;13.50;9.45;;;;;;;;;;5052193;28;20116;-57
2023/09/09 14:26:32;;;;;;;12.40;9.25;;;;;;;;;;5054685;28;20365;-58
2023/09/09 14:28:58;;;;;;;13.57;9.60;;;;;;;;;;5054121;28;20075;-58